Time;durP1;ratioP1;P1;durP2;ratioP2;P2;SDS_P1;SDS_P2;PMS_P1;PMS_P2;Temp;Humidity;BMP_temperature;BMP_pressure;BME280_temperature;BME280_humidity;BME280_pressure;Samples;Min_cycle;Max_cycle;Signal;HPM_P1;HPM_P2
2023/01/19 00:01:07;;;;;;;11.55;4.60;;;2.60;57.60;;;;;;5066576;28;20182;-65
2023/01/19 00:03:36;;;;;;;7.18;5.10;;;2.60;57.60;;;;;;5045730;28;20236;-65
2023/01/19 00:06:05;;;;;;;8.88;4.47;;;2.60;57.70;;;;;;5058682;28;20265;-66
2023/01/19 00:08:33;;;;;;;7.35;4.72;;;2.60;57.80;;;;;;5073545;28;20284;-66
2023/01/19 00:11:01;;;;;;;6.93;4.45;;;2.60;57.70;;;;;;5064175;28;20220;-65
2023/01/19 00:13:28;;;;;;;6.85;4.75;;;2.60;57.80;;;;;;5053180;28;20190;-65
2023/01/19 00:15:55;;;;;;;5.28;4.25;;;2.60;57.70;;;;;;5060140;28;20276;-66
2023/01/19 00:18:23;;;;;;;6.85;4.55;;;2.60;57.70;;;;;;5073108;28;20272;-65
2023/01/19 00:20:52;;;;;;;6.20;4.22;;;2.70;57.70;;;;;;5066506;28;20653;-65
2023/01/19 00:23:20;;;;;;;6.03;4.45;;;2.60;57.70;;;;;;5053230;28;20190;-65
2023/01/19 00:25:48;;;;;;;8.45;5.10;;;2.60;57.70;;;;;;5058266;28;20197;-65
2023/01/19 00:28:16;;;;;;;4.95;3.80;;;2.60;57.80;;;;;;5072894;28;20624;-65
2023/01/19 00:30:45;;;;;;;8.00;4.72;;;2.70;58.00;;;;;;5068412;28;20673;-65
2023/01/19 00:33:14;;;;;;;7.10;3.60;;;2.70;58.10;;;;;;5052821;28;20221;-65
2023/01/19 00:35:42;;;;;;;8.57;4.80;;;2.70;58.10;;;;;;5067768;28;20276;-65
2023/01/19 00:38:11;;;;;;;5.63;3.70;;;2.70;58.00;;;;;;5072781;28;20201;-65
2023/01/19 00:40:39;;;;;;;5.72;4.10;;;2.70;58.00;;;;;;5061315;28;20187;-66
2023/01/19 00:43:06;;;;;;;7.03;3.88;;;2.60;57.90;;;;;;5070209;28;20243;-65
2023/01/19 00:45:34;;;;;;;9.40;4.13;;;2.60;57.90;;;;;;5072775;28;20217;-65
2023/01/19 00:48:01;;;;;;;6.43;3.40;;;2.60;58.30;;;;;;5060457;28;20218;-65
2023/01/19 00:50:30;;;;;;;5.07;3.47;;;2.60;58.40;;;;;;5052955;28;20214;-65
2023/01/19 00:52:59;;;;;;;4.40;3.20;;;2.60;58.40;;;;;;5063527;28;20217;-65
2023/01/19 00:55:29;;;;;;;5.38;3.08;;;2.60;58.40;;;;;;5064370;28;20182;-65
2023/01/19 00:57:56;;;;;;;6.70;3.58;;;2.60;58.30;;;;;;5052703;28;20226;-64
2023/01/19 01:00:25;;;;;;;7.70;4.15;;;2.60;58.30;;;;;;5058919;28;20272;-65
2023/01/19 01:02:53;;;;;;;6.60;3.88;;;2.60;58.40;;;;;;5072405;28;20204;-65
2023/01/19 01:05:21;;;;;;;4.90;3.90;;;2.60;58.30;;;;;;5066354;28;20190;-66
2023/01/19 01:07:49;;;;;;;6.88;4.13;;;2.60;58.50;;;;;;5052525;28;20191;-65
2023/01/19 01:10:18;;;;;;;5.18;3.90;;;2.60;58.70;;;;;;5056703;28;20213;-65
2023/01/19 01:12:48;;;;;;;9.23;3.65;;;2.60;58.60;;;;;;5072193;28;20204;-65
2023/01/19 01:15:17;;;;;;;7.13;4.30;;;2.60;58.60;;;;;;5067952;28;20197;-65
2023/01/19 01:17:46;;;;;;;5.97;3.97;;;2.50;58.70;;;;;;5052330;28;20186;-65
2023/01/19 01:20:18;;;;;;;5.30;3.80;;;2.50;58.80;;;;;;5055142;28;20190;-65
2023/01/19 01:22:47;;;;;;;8.77;4.90;;;2.50;58.90;;;;;;5072210;28;20189;-65
2023/01/19 01:25:15;;;;;;;6.25;3.75;;;2.50;58.90;;;;;;5069819;28;20230;-65
2023/01/19 01:27:42;;;;;;;5.30;3.47;;;2.50;59.10;;;;;;5051921;28;20190;-66
2023/01/19 01:30:14;;;;;;;7.40;3.78;;;2.50;59.30;;;;;;5053151;28;20214;-65
2023/01/19 01:32:41;;;;;;;8.15;4.07;;;2.50;59.40;;;;;;5072009;28;20197;-65
2023/01/19 01:35:09;;;;;;;6.47;4.10;;;2.50;59.60;;;;;;5071116;28;20193;-65
2023/01/19 01:37:37;;;;;;;8.38;5.10;;;2.50;59.50;;;;;;5051793;28;20190;-66
2023/01/19 01:40:06;;;;;;;8.50;4.20;;;2.50;59.60;;;;;;5052139;28;20190;-66
2023/01/19 01:42:34;;;;;;;5.40;4.60;;;2.50;59.60;;;;;;5071832;28;20217;-65
2023/01/19 01:45:05;;;;;;;8.50;4.28;;;2.50;59.60;;;;;;5071902;28;20680;-65
2023/01/19 01:47:38;;;;;;;7.55;4.63;;;2.40;59.80;;;;;;5071308;28;20193;-66
2023/01/19 01:50:11;;;;;;;7.95;4.60;;;2.50;59.80;;;;;;5071866;28;20204;-65
2023/01/19 01:52:44;;;;;;;5.40;4.45;;;2.50;59.90;;;;;;5052301;28;20252;-66
2023/01/19 01:55:13;;;;;;;4.78;3.80;;;2.50;60.10;;;;;;5055478;28;20190;-65
2023/01/19 01:57:44;;;;;;;7.00;4.70;;;2.40;60.10;;;;;;5075192;28;20232;-65
2023/01/19 02:00:13;;;;;;;10.13;4.93;;;2.50;60.30;;;;;;5076247;28;20276;-65
2023/01/19 02:02:50;;;;;;;9.70;4.05;;;2.40;60.10;;;;;;5056325;28;20229;-65
2023/01/19 02:05:21;;;;;;;6.85;4.25;;;2.40;60.30;;;;;;5055854;28;20194;-65
2023/01/19 02:13:28;;;;;;;6.88;4.88;;;2.30;60.90;;;;;;5055842;28;20547;-65
2023/01/19 02:15:57;;;;;;;5.97;4.55;;;2.30;61.40;;;;;;5058097;28;20179;-65
2023/01/19 02:18:29;;;;;;;7.07;5.30;;;2.30;61.40;;;;;;5075157;28;20225;-65
2023/01/19 02:21:04;;;;;;;5.95;4.25;;;2.30;61.20;;;;;;5065655;28;20194;-65
2023/01/19 02:23:40;;;;;;;6.22;4.20;;;2.30;61.20;;;;;;5055776;28;20194;-65
2023/01/19 02:26:10;;;;;;;6.78;4.68;;;2.20;61.20;;;;;;5065947;28;20197;-65
2023/01/19 02:28:41;;;;;;;8.68;4.60;;;2.10;61.50;;;;;;5073372;28;20284;-65
2023/01/19 02:31:09;;;;;;;7.25;5.13;;;2.10;61.70;;;;;;5064034;28;20221;-65
2023/01/19 02:33:37;;;;;;;7.80;4.70;;;2.10;62.00;;;;;;5056145;28;20190;-65
2023/01/19 02:36:07;;;;;;;8.00;5.65;;;2.10;62.30;;;;;;5075299;28;20193;-65
2023/01/19 02:38:38;;;;;;;9.93;5.20;;;2.10;62.50;;;;;;5074422;28;20284;-65
2023/01/19 02:41:08;;;;;;;6.88;4.35;;;2.20;62.80;;;;;;5055344;28;20217;-65
2023/01/19 02:43:37;;;;;;;7.10;4.90;;;2.20;62.60;;;;;;5055171;28;20196;-65
2023/01/19 02:46:05;;;;;;;7.32;5.50;;;2.20;62.70;;;;;;5075076;28;20556;-65
2023/01/19 02:48:33;;;;;;;10.32;5.30;;;2.20;63.00;;;;;;5075083;28;20733;-65
2023/01/19 02:51:03;;;;;;;6.72;4.47;;;2.10;63.00;;;;;;5073025;28;20263;-65
2023/01/19 02:54:11;;;;;;;9.15;5.22;;;2.10;63.20;;;;;;5075138;28;20554;-65
2023/01/19 02:57:09;;;;;;;7.85;5.30;;;2.10;63.10;;;;;;5054843;28;20190;-65
2023/01/19 02:59:53;;;;;;;8.90;5.78;;;2.00;63.20;;;;;;5054622;28;20186;-65
2023/01/19 03:02:33;;;;;;;7.63;5.10;;;2.00;63.20;;;;;;5054705;28;20280;-65
2023/01/19 03:05:16;;;;;;;9.55;5.63;;;2.00;63.20;;;;;;5063273;28;20589;-66
2023/01/19 03:07:53;;;;;;;8.90;6.05;;;2.00;63.30;;;;;;5074719;28;20224;-65
2023/01/19 03:10:31;;;;;;;8.18;5.60;;;1.90;63.00;;;;;;5062719;28;20714;-64
2023/01/19 03:13:02;;;;;;;9.10;5.65;;;1.90;63.60;;;;;;5054803;28;20201;-65
2023/01/19 03:15:34;;;;;;;6.15;4.90;;;1.90;63.90;;;;;;5066698;28;20235;-65
2023/01/19 03:18:03;;;;;;;8.20;5.40;;;1.90;64.10;;;;;;5074953;28;20255;-65
2023/01/19 03:20:30;;;;;;;12.95;5.70;;;1.90;64.30;;;;;;5062229;28;20197;-65
2023/01/19 03:23:01;;;;;;;7.93;5.57;;;1.80;64.80;;;;;;5054629;28;20212;-64
2023/01/19 03:25:35;;;;;;;8.45;5.40;;;1.70;65.20;;;;;;5065232;28;20194;-65
2023/01/19 03:28:04;;;;;;;12.20;4.93;;;1.70;65.30;;;;;;5074509;28;20198;-65
2023/01/19 03:30:36;;;;;;;8.90;5.55;;;1.80;65.20;;;;;;5062886;28;20187;-65
2023/01/19 03:33:08;;;;;;;11.15;5.75;;;1.80;65.10;;;;;;5054366;28;20198;-65
2023/01/19 03:35:39;;;;;;;8.25;5.55;;;1.80;65.00;;;;;;5064497;28;20221;-65
2023/01/19 03:38:12;;;;;;;10.02;6.20;;;1.80;65.00;;;;;;5074169;28;20688;-65
2023/01/19 03:40:41;;;;;;;7.25;5.60;;;1.80;65.10;;;;;;5062737;28;20183;-65
2023/01/19 03:43:09;;;;;;;10.25;5.95;;;1.80;65.00;;;;;;5053943;28;20194;-67
2023/01/19 03:45:43;;;;;;;10.65;5.80;;;1.70;65.20;;;;;;5062282;28;20715;-65
2023/01/19 03:48:10;;;;;;;8.95;6.05;;;1.70;65.60;;;;;;5074040;28;20197;-65
2023/01/19 03:50:38;;;;;;;7.10;5.65;;;1.70;65.90;;;;;;5064004;28;20198;-65
2023/01/19 03:53:10;;;;;;;9.35;6.32;;;1.70;65.80;;;;;;5054678;28;20197;-65
2023/01/19 03:55:42;;;;;;;11.75;5.25;;;1.70;66.00;;;;;;5062379;28;20185;-65
2023/01/19 03:58:09;;;;;;;7.35;5.85;;;1.80;66.20;;;;;;5073727;28;20717;-65
2023/01/19 04:00:37;;;;;;;9.18;6.40;;;1.80;66.20;;;;;;5065097;28;20187;-65
2023/01/19 04:03:04;;;;;;;7.95;6.03;;;1.80;66.10;;;;;;5053714;28;20198;-65
2023/01/19 04:05:32;;;;;;;10.15;6.05;;;1.80;65.70;;;;;;5060503;28;20273;-65
2023/01/19 04:08:00;;;;;;;7.47;5.82;;;1.80;65.70;;;;;;5073866;28;20194;-64
2023/01/19 04:10:27;;;;;;;10.10;6.15;;;1.80;66.00;;;;;;5067465;28;20191;-66
2023/01/19 04:13:00;;;;;;;7.35;5.90;;;1.80;66.00;;;;;;5057988;28;20217;-64
2023/01/19 04:15:29;;;;;;;11.15;6.88;;;1.70;66.20;;;;;;5073703;28;20189;-64
2023/01/19 04:17:58;;;;;;;10.15;6.50;;;1.80;66.50;;;;;;5068781;28;20194;-64
2023/01/19 04:20:27;;;;;;;9.90;6.75;;;1.80;66.60;;;;;;5053548;28;20194;-64
2023/01/19 04:22:54;;;;;;;9.23;7.20;;;1.80;66.20;;;;;;5056515;28;20200;-64
2023/01/19 04:25:22;;;;;;;9.65;7.57;;;1.80;66.50;;;;;;5072640;28;20189;-64
2023/01/19 04:27:52;;;;;;;10.90;7.07;;;1.80;66.70;;;;;;5071008;28;20622;-65
2023/01/19 04:30:22;;;;;;;13.48;8.55;;;1.70;66.70;;;;;;5053244;28;20186;-65
2023/01/19 04:32:50;;;;;;;9.45;7.03;;;1.70;66.70;;;;;;5054034;28;20226;-65
2023/01/19 04:35:18;;;;;;;13.10;7.47;;;1.80;66.40;;;;;;5072701;28;20196;-65
2023/01/19 04:37:45;;;;;;;10.40;7.80;;;1.80;65.70;;;;;;5072565;28;20243;-65
2023/01/19 04:40:13;;;;;;;10.63;7.22;;;1.80;65.30;;;;;;5053056;28;20202;-64
2023/01/19 04:42:44;;;;;;;10.63;6.63;;;1.80;64.40;;;;;;5052918;28;20187;-65
2023/01/19 04:45:12;;;;;;;9.82;8.13;;;1.80;64.00;;;;;;5053176;28;20284;-64
2023/01/19 04:47:41;;;;;;;11.90;7.40;;;1.70;63.50;;;;;;5053106;28;20191;-64
2023/01/19 04:50:10;;;;;;;10.27;6.68;;;1.70;63.20;;;;;;5070814;28;20181;-65
2023/01/19 04:52:40;;;;;;;12.65;8.70;;;1.70;62.80;;;;;;5072803;28;20254;-65
2023/01/19 04:55:08;;;;;;;11.68;7.97;;;1.70;62.40;;;;;;5055026;28;20644;-65
2023/01/19 04:57:36;;;;;;;10.35;6.72;;;1.70;62.10;;;;;;5052961;28;20186;-65
2023/01/19 05:00:06;;;;;;;11.50;6.75;;;1.60;61.80;;;;;;5068875;28;20190;-64
2023/01/19 05:02:35;;;;;;;9.90;6.82;;;1.60;61.80;;;;;;5072864;28;20289;-64
2023/01/19 05:05:04;;;;;;;12.23;7.63;;;1.60;61.70;;;;;;5056955;28;20186;-66
2023/01/19 05:07:33;;;;;;;13.90;7.93;;;1.50;61.20;;;;;;5052867;28;20202;-65
2023/01/19 05:10:00;;;;;;;12.18;8.55;;;1.50;61.30;;;;;;5067333;28;20683;-64
2023/01/19 05:12:28;;;;;;;12.52;7.85;;;1.50;61.30;;;;;;5072753;28;20271;-65
2023/01/19 05:14:56;;;;;;;17.42;7.97;;;1.40;61.10;;;;;;5058872;28;20734;-65
2023/01/19 05:17:23;;;;;;;13.27;8.15;;;1.40;60.90;;;;;;5052389;28;20190;-64
2023/01/19 05:19:50;;;;;;;11.20;8.05;;;1.40;61.10;;;;;;5064102;28;20235;-65
2023/01/19 05:22:19;;;;;;;10.85;8.45;;;1.40;60.90;;;;;;5072105;28;20189;-65
2023/01/19 05:24:47;;;;;;;12.57;7.93;;;1.30;60.50;;;;;;5061199;28;20194;-65
2023/01/19 05:27:14;;;;;;;12.13;8.00;;;1.30;60.30;;;;;;5052447;28;20278;-65
2023/01/19 05:29:42;;;;;;;11.98;6.43;;;1.30;60.30;;;;;;5060782;28;20197;-64
2023/01/19 05:32:09;;;;;;;15.35;7.60;;;1.20;60.10;;;;;;5072294;28;20304;-65
2023/01/19 05:34:37;;;;;;;10.73;6.68;;;1.20;60.10;;;;;;5067428;28;20194;-65
2023/01/19 05:37:04;;;;;;;16.67;8.25;;;1.20;60.30;;;;;;5064285;28;20247;-65
2023/01/19 05:39:32;;;;;;;12.93;8.30;;;1.10;60.30;;;;;;5072534;28;20189;-64
2023/01/19 05:42:00;;;;;;;16.02;8.20;;;1.10;60.20;;;;;;5066426;28;20182;-65
2023/01/19 05:44:27;;;;;;;13.32;9.30;;;1.10;60.40;;;;;;5052198;28;20287;-64
2023/01/19 05:46:55;;;;;;;13.55;9.15;;;1.00;60.40;;;;;;5067291;28;20640;-65
2023/01/19 05:49:22;;;;;;;13.23;9.13;;;0.90;60.40;;;;;;5072244;28;20674;-64
2023/01/19 05:51:50;;;;;;;11.20;8.50;;;1.00;60.90;;;;;;5057856;28;20613;-64
2023/01/19 05:54:17;;;;;;;14.48;9.27;;;0.90;60.70;;;;;;5052216;28;20194;-65
2023/01/19 05:56:46;;;;;;;15.82;9.45;;;0.90;60.70;;;;;;5064500;28;20276;-64
2023/01/19 05:59:14;;;;;;;13.25;9.40;;;0.90;60.70;;;;;;5072180;28;20189;-64
2023/01/19 06:01:41;;;;;;;13.75;9.35;;;0.90;60.60;;;;;;5060475;28;20572;-65
2023/01/19 06:04:08;;;;;;;13.75;9.65;;;0.90;60.90;;;;;;5052074;28;20637;-65
2023/01/19 06:06:35;;;;;;;11.50;7.93;;;0.90;60.90;;;;;;5061668;28;20190;-64
2023/01/19 06:09:03;;;;;;;10.55;7.65;;;0.90;60.80;;;;;;5070390;28;20294;-64
2023/01/19 06:11:30;;;;;;;10.05;7.65;;;0.90;60.80;;;;;;5063186;28;20233;-64
2023/01/19 06:13:59;;;;;;;16.48;8.63;;;0.90;60.80;;;;;;5053419;28;20194;-65
2023/01/19 06:16:27;;;;;;;12.43;8.48;;;0.90;60.70;;;;;;5058684;28;20194;-65
2023/01/19 06:18:54;;;;;;;12.82;9.00;;;0.80;60.50;;;;;;5072373;28;20189;-64
2023/01/19 06:21:22;;;;;;;10.98;8.20;;;0.80;60.70;;;;;;5065833;28;20637;-64
2023/01/19 06:23:50;;;;;;;15.20;8.85;;;0.90;61.00;;;;;;5052109;28;20190;-64
2023/01/19 06:26:17;;;;;;;10.32;7.30;;;0.90;61.00;;;;;;5056437;28;20300;-64
2023/01/19 06:28:45;;;;;;;14.38;8.52;;;0.90;60.90;;;;;;5071789;28;20248;-65
2023/01/19 06:31:14;;;;;;;16.48;9.55;;;0.90;60.80;;;;;;5068198;28;20187;-64
2023/01/19 06:33:42;;;;;;;12.30;9.30;;;0.80;60.70;;;;;;5051740;28;20250;-65
2023/01/19 06:36:09;;;;;;;9.75;7.95;;;0.70;60.90;;;;;;5053314;28;20236;-64
2023/01/19 06:38:37;;;;;;;9.43;7.68;;;0.70;61.10;;;;;;5072083;28;20552;-65
2023/01/19 06:41:05;;;;;;;12.73;9.15;;;0.70;60.90;;;;;;5072046;28;20280;-65
2023/01/19 06:43:32;;;;;;;13.52;9.07;;;0.70;60.90;;;;;;5055639;28;20221;-65
2023/01/19 06:46:00;;;;;;;14.60;12.48;;;0.70;61.00;;;;;;5055395;28;20226;-65
2023/01/19 06:48:29;;;;;;;17.23;11.13;;;0.70;61.20;;;;;;5061719;28;20197;-65
2023/01/19 06:50:57;;;;;;;19.10;13.27;;;0.50;61.50;;;;;;5054465;28;20222;-64
2023/01/19 06:53:26;;;;;;;14.60;10.68;;;0.50;61.60;;;;;;5055890;28;20214;-64
2023/01/19 06:55:54;;;;;;;16.67;13.18;;;0.50;61.50;;;;;;5069490;28;20277;-64
2023/01/19 06:58:20;;;;;;;12.77;9.77;;;0.50;61.60;;;;;;5054807;28;20227;-65
2023/01/19 07:00:50;;;;;;;33.95;26.08;;;0.50;61.60;;;;;;5068457;28;20284;-65
2023/01/19 07:03:20;;;;;;;24.35;13.20;;;0.50;61.90;;;;;;5072522;28;20243;-64
2023/01/19 07:05:51;;;;;;;18.92;12.85;;;0.50;62.00;;;;;;5072051;28;20549;-64
2023/01/19 07:08:18;;;;;;;18.90;12.00;;;0.40;62.00;;;;;;5055032;28;20248;-64
2023/01/19 07:10:46;;;;;;;21.20;12.57;;;0.30;62.00;;;;;;5070324;28;20221;-64
2023/01/19 07:13:12;;;;;;;13.82;9.10;;;0.30;62.40;;;;;;5070915;28;20305;-65
2023/01/19 07:15:39;;;;;;;12.30;9.48;;;0.30;62.50;;;;;;5054327;28;20277;-65
2023/01/19 07:18:08;;;;;;;15.75;10.07;;;0.40;62.70;;;;;;5067044;28;20281;-64
2023/01/19 07:20:36;;;;;;;13.75;9.02;;;0.40;62.80;;;;;;5057052;28;20281;-65
2023/01/19 07:23:04;;;;;;;18.00;9.15;;;0.40;62.80;;;;;;5067307;28;20269;-65
2023/01/19 07:25:31;;;;;;;19.48;11.98;;;0.50;63.00;;;;;;5071263;28;20285;-65
2023/01/19 07:27:59;;;;;;;17.17;11.25;;;0.50;62.80;;;;;;5072506;28;20363;-64
2023/01/19 07:30:26;;;;;;;16.17;10.30;;;0.50;62.70;;;;;;5064902;28;20281;-64
2023/01/19 07:32:56;;;;;;;17.08;11.38;;;0.60;62.80;;;;;;5066683;28;20264;-65
2023/01/19 07:35:23;;;;;;;20.75;12.80;;;0.60;62.70;;;;;;5069142;28;20189;-65
2023/01/19 07:37:49;;;;;;;22.85;10.88;;;0.70;62.60;;;;;;5067322;28;20321;-65
2023/01/19 07:40:19;;;;;;;17.40;12.57;;;0.80;62.40;;;;;;5066337;28;20247;-66
2023/01/19 07:42:47;;;;;;;17.02;9.88;;;0.80;62.20;;;;;;5053485;28;20187;-65
2023/01/19 07:45:15;;;;;;;16.00;9.15;;;0.90;62.40;;;;;;5071291;28;20582;-65
2023/01/19 07:47:44;;;;;;;14.13;9.93;;;0.90;61.90;;;;;;5062294;28;20542;-65
2023/01/19 07:50:13;;;;;;;11.65;8.88;;;0.90;61.40;;;;;;5070349;28;20193;-66
2023/01/19 07:52:41;;;;;;;17.20;9.70;;;1.00;60.90;;;;;;5053195;28;20226;-65
2023/01/19 07:55:11;;;;;;;15.02;10.20;;;1.00;60.60;;;;;;5054183;28;20187;-65
2023/01/19 07:57:40;;;;;;;11.98;8.50;;;1.00;60.70;;;;;;5061391;28;20218;-65
2023/01/19 08:00:08;;;;;;;14.60;8.95;;;1.00;59.90;;;;;;5074018;28;20225;-66
2023/01/19 08:02:36;;;;;;;19.20;10.57;;;1.00;60.20;;;;;;5073955;28;20190;-65
2023/01/19 08:05:03;;;;;;;13.05;9.65;;;1.00;60.50;;;;;;5074240;28;20221;-65
2023/01/19 08:07:30;;;;;;;15.88;9.98;;;1.00;60.50;;;;;;5074151;28;20293;-65
2023/01/19 08:09:58;;;;;;;14.23;8.90;;;1.00;60.50;;;;;;5074051;28;20298;-65
2023/01/19 08:12:25;;;;;;;15.50;9.27;;;1.10;59.90;;;;;;5073961;28;20253;-65
2023/01/19 08:14:53;;;;;;;15.07;9.25;;;1.30;60.00;;;;;;5074260;28;20301;-65
2023/01/19 08:17:20;;;;;;;18.23;9.80;;;1.50;59.90;;;;;;5073629;28;20277;-65
2023/01/19 08:19:47;;;;;;;10.63;8.52;;;1.60;59.70;;;;;;5073970;28;20285;-65
2023/01/19 08:22:14;;;;;;;13.10;9.35;;;1.60;59.00;;;;;;5074233;28;20281;-65
2023/01/19 08:24:41;;;;;;;12.48;8.43;;;1.70;58.90;;;;;;5073860;28;20613;-66
2023/01/19 08:27:09;;;;;;;14.80;9.20;;;1.80;58.90;;;;;;5073776;28;20225;-65
2023/01/19 08:29:36;;;;;;;15.55;10.32;;;1.90;58.20;;;;;;5074227;28;20547;-65
2023/01/19 08:32:05;;;;;;;16.88;9.45;;;1.80;58.10;;;;;;5073140;28;20277;-66
2023/01/19 08:34:32;;;;;;;12.75;8.90;;;1.90;58.60;;;;;;5073803;28;20205;-66
2023/01/19 08:36:59;;;;;;;18.42;8.93;;;2.10;58.70;;;;;;5073946;28;20292;-66
2023/01/19 08:39:26;;;;;;;16.13;8.70;;;2.20;58.10;;;;;;5073610;28;20292;-66
2023/01/19 08:41:53;;;;;;;11.27;7.47;;;2.30;57.30;;;;;;5073448;28;20281;-65
2023/01/19 08:44:21;;;;;;;11.25;8.27;;;2.40;57.40;;;;;;5073446;28;20190;-65
2023/01/19 08:46:48;;;;;;;8.55;6.50;;;2.50;57.60;;;;;;5073327;28;20229;-66
2023/01/19 08:49:16;;;;;;;12.52;7.97;;;2.70;57.50;;;;;;5073421;28;20284;-65
2023/01/19 08:51:45;;;;;;;13.18;8.45;;;3.00;57.20;;;;;;5073473;28;20282;-65
2023/01/19 08:54:13;;;;;;;11.85;8.13;;;3.30;57.10;;;;;;5073544;28;20218;-65
2023/01/19 08:56:40;;;;;;;16.73;10.18;;;3.60;56.60;;;;;;5073538;28;20292;-65
2023/01/19 08:59:07;;;;;;;13.45;9.18;;;4.00;56.30;;;;;;5073497;28;20611;-65
2023/01/19 09:01:33;;;;;;;11.90;8.15;;;4.50;56.30;;;;;;5073404;28;20199;-67
2023/01/19 09:04:00;;;;;;;12.00;8.20;;;4.90;54.80;;;;;;5072547;28;20229;-66
2023/01/19 09:06:29;;;;;;;10.38;7.00;;;5.30;54.60;;;;;;5073270;28;20276;-66
2023/01/19 09:08:56;;;;;;;12.30;8.18;;;5.60;52.90;;;;;;5073210;28;20198;-66
2023/01/19 09:11:23;;;;;;;11.30;7.90;;;5.80;51.60;;;;;;5073305;28;20195;-66
2023/01/19 09:13:50;;;;;;;11.43;7.40;;;6.00;51.70;;;;;;5073152;28;20308;-66
2023/01/19 09:16:17;;;;;;;11.35;8.20;;;6.30;50.60;;;;;;5073036;28;20281;-66
2023/01/19 09:18:45;;;;;;;12.20;8.23;;;6.40;48.30;;;;;;5073064;28;20193;-66
2023/01/19 09:21:12;;;;;;;11.07;7.75;;;6.50;48.30;;;;;;5072880;28;20189;-66
2023/01/19 09:23:41;;;;;;;9.77;8.05;;;6.60;48.40;;;;;;5073000;28;20185;-66
2023/01/19 09:26:08;;;;;;;11.23;6.45;;;6.70;47.80;;;;;;5072982;28;20225;-65
2023/01/19 09:28:35;;;;;;;7.78;6.68;;;6.80;46.80;;;;;;5073023;28;20640;-66
2023/01/19 09:31:06;;;;;;;15.52;7.78;;;7.00;46.60;;;;;;5073233;28;20229;-67
2023/01/19 09:33:33;;;;;;;11.73;7.13;;;7.20;46.20;;;;;;5072861;28;20228;-66
2023/01/19 09:36:00;;;;;;;15.18;8.05;;;7.40;45.50;;;;;;5073010;28;20285;-65
2023/01/19 09:38:30;;;;;;;11.85;7.32;;;7.50;45.00;;;;;;5073014;28;20198;-65
2023/01/19 09:40:59;;;;;;;10.10;8.07;;;7.60;44.60;;;;;;5072838;28;20197;-65
2023/01/19 09:43:39;;;;;;;10.80;8.48;;;7.60;43.60;;;;;;5072641;28;20293;-66
2023/01/19 09:46:12;;;;;;;10.90;7.13;;;7.60;43.60;;;;;;5072639;28;20222;-66
2023/01/19 09:48:45;;;;;;;9.85;7.55;;;7.70;42.90;;;;;;5072625;28;20700;-66
2023/01/19 09:51:16;;;;;;;11.57;7.35;;;7.90;43.30;;;;;;5072994;28;20190;-66
2023/01/19 09:54:05;;;;;;;10.15;7.50;;;8.10;42.40;;;;;;5070775;28;20279;-65
2023/01/19 09:56:33;;;;;;;13.38;6.82;;;8.10;40.20;;;;;;5072908;28;20278;-67
2023/01/19 09:59:02;;;;;;;12.48;8.40;;;8.20;41.00;;;;;;5072345;28;20234;-66
2023/01/19 10:01:45;;;;;;;8.55;6.97;;;8.20;40.00;;;;;;5072393;28;20195;-66
2023/01/19 10:04:31;;;;;;;8.30;7.40;;;8.10;40.00;;;;;;5072413;28;20208;-65
2023/01/19 10:07:08;;;;;;;9.35;7.22;;;8.10;40.70;;;;;;5072496;28;20195;-65
2023/01/19 10:09:48;;;;;;;8.93;6.13;;;8.20;40.60;;;;;;5072077;28;20227;-66
2023/01/19 10:12:29;;;;;;;8.18;6.18;;;8.20;40.60;;;;;;5072001;28;20277;-65
2023/01/19 10:15:04;;;;;;;12.65;7.03;;;8.30;39.00;;;;;;5073216;28;20230;-66
2023/01/19 10:17:43;;;;;;;10.00;6.55;;;8.20;37.70;;;;;;5076265;28;20227;-66
2023/01/19 10:20:16;;;;;;;10.70;6.68;;;7.90;37.00;;;;;;5076200;28;20223;-66
2023/01/19 10:22:47;;;;;;;13.45;6.85;;;7.80;37.90;;;;;;5075481;28;20281;-65
2023/01/19 10:25:19;;;;;;;9.90;5.38;;;7.60;38.50;;;;;;5066616;28;20190;-66
2023/01/19 10:27:48;;;;;;;14.25;5.40;;;7.70;39.10;;;;;;5059459;28;20291;-65
2023/01/19 10:30:22;;;;;;;7.45;6.10;;;8.00;39.80;;;;;;5059839;28;20192;-66
2023/01/19 10:32:50;;;;;;;9.20;6.43;;;8.20;37.90;;;;;;5057969;28;20202;-66
2023/01/19 10:35:23;;;;;;;7.53;5.00;;;8.30;38.50;;;;;;5055752;28;20296;-66
2023/01/19 10:37:50;;;;;;;11.13;5.57;;;8.50;38.50;;;;;;5062115;28;20326;-66
2023/01/19 10:40:27;;;;;;;7.28;4.90;;;8.70;37.90;;;;;;5064385;28;20705;-65
2023/01/19 10:42:56;;;;;;;12.95;7.25;;;8.70;37.10;;;;;;5058932;28;20282;-66
2023/01/19 10:45:28;;;;;;;7.03;5.32;;;8.60;36.90;;;;;;5061628;28;20259;-66
2023/01/19 10:47:57;;;;;;;9.27;5.78;;;8.50;36.50;;;;;;5065354;28;20200;-65
2023/01/19 10:50:28;;;;;;;10.48;6.07;;;8.60;37.10;;;;;;5062449;28;20604;-66
2023/01/19 10:52:57;;;;;;;16.98;7.22;;;8.70;36.60;;;;;;5060313;28;20608;-65
2023/01/19 10:55:28;;;;;;;8.27;5.70;;;8.80;36.80;;;;;;5064516;28;20287;-66
2023/01/19 10:57:57;;;;;;;8.75;5.18;;;8.90;35.50;;;;;;5064424;28;20204;-66
2023/01/19 11:00:36;;;;;;;5.93;4.80;;;8.90;35.00;;;;;;5067243;28;20287;-65
2023/01/19 11:03:05;;;;;;;7.85;5.40;;;8.70;33.80;;;;;;5061412;28;20201;-66
2023/01/19 11:05:35;;;;;;;10.45;6.18;;;8.70;34.70;;;;;;5061505;28;20604;-66
2023/01/19 11:08:23;;;;;;;6.25;4.50;;;8.80;35.00;;;;;;5052136;28;20286;-67
2023/01/19 11:10:54;;;;;;;7.40;4.45;;;8.90;34.20;;;;;;5052617;28;20259;-66
2023/01/19 11:13:22;;;;;;;10.63;5.25;;;9.00;34.60;;;;;;5058229;28;20222;-67
2023/01/19 11:15:56;;;;;;;8.23;6.45;;;9.30;35.20;;;;;;5051974;28;20556;-66
2023/01/19 11:18:27;;;;;;;8.60;4.93;;;9.50;34.60;;;;;;5057771;28;20201;-66
2023/01/19 11:20:56;;;;;;;9.77;5.43;;;9.70;35.00;;;;;;5053980;28;20284;-66
2023/01/19 11:23:27;;;;;;;7.00;5.32;;;10.00;33.70;;;;;;5053447;28;20279;-66
2023/01/19 11:25:57;;;;;;;10.68;5.47;;;10.10;32.60;;;;;;5058151;28;20288;-66
2023/01/19 11:28:29;;;;;;;9.45;4.90;;;10.20;31.60;;;;;;5053310;28;20232;-66
2023/01/19 11:30:58;;;;;;;10.35;6.55;;;10.10;31.30;;;;;;5053974;28;20554;-66
2023/01/19 11:33:27;;;;;;;6.45;4.90;;;10.10;31.70;;;;;;5054563;28;20312;-66
2023/01/19 11:36:03;;;;;;;10.27;6.20;;;10.10;30.50;;;;;;5052782;28;20607;-66
2023/01/19 11:38:31;;;;;;;7.35;5.15;;;10.00;30.90;;;;;;5066568;28;20197;-66
2023/01/19 11:41:00;;;;;;;7.38;5.25;;;9.70;31.30;;;;;;5074776;28;20289;-65
2023/01/19 11:43:30;;;;;;;5.88;4.63;;;9.50;32.00;;;;;;5074712;28;20200;-67
2023/01/19 11:45:58;;;;;;;5.28;4.40;;;9.30;31.80;;;;;;5074346;28;20612;-65
2023/01/19 11:48:41;;;;;;;6.00;4.75;;;9.10;31.70;;;;;;5074653;28;20253;-65
2023/01/19 11:51:13;;;;;;;5.28;4.32;;;8.90;32.00;;;;;;5074562;28;20584;-66
2023/01/19 11:53:45;;;;;;;6.20;4.63;;;8.70;32.40;;;;;;5074108;28;20689;-66
2023/01/19 11:56:14;;;;;;;6.28;4.30;;;8.50;32.30;;;;;;5074332;28;20195;-66
2023/01/19 11:58:45;;;;;;;5.65;4.47;;;8.40;32.40;;;;;;5074054;28;20286;-67
2023/01/19 12:01:19;;;;;;;7.78;5.10;;;8.20;32.10;;;;;;5074231;28;20196;-67
2023/01/19 12:03:53;;;;;;;5.95;4.78;;;8.00;32.30;;;;;;5074223;28;20198;-66
2023/01/19 12:06:23;;;;;;;6.22;4.90;;;7.80;33.30;;;;;;5069386;28;20195;-66
2023/01/19 12:08:54;;;;;;;7.55;5.10;;;7.80;33.00;;;;;;5072989;28;20277;-66
2023/01/19 12:11:32;;;;;;;10.77;5.75;;;7.50;32.70;;;;;;5073255;28;20724;-66
2023/01/19 12:14:02;;;;;;;6.65;5.07;;;7.50;33.30;;;;;;5061269;28;20214;-66
2023/01/19 12:16:32;;;;;;;7.85;4.72;;;7.30;32.40;;;;;;5062023;28;20733;-67
2023/01/19 12:19:02;;;;;;;7.47;5.20;;;7.30;33.30;;;;;;5064422;28;20191;-66
2023/01/19 12:21:29;;;;;;;8.68;5.20;;;7.20;32.70;;;;;;5072967;28;20191;-66
2023/01/19 12:24:06;;;;;;;8.77;5.40;;;6.70;33.60;;;;;;5049941;28;20276;-65
2023/01/19 12:26:37;;;;;;;9.65;5.35;;;6.80;34.60;;;;;;5052739;28;20226;-67
2023/01/19 12:29:12;;;;;;;10.60;5.53;;;6.70;34.70;;;;;;5053091;28;20194;-67
2023/01/19 12:31:41;;;;;;;6.18;4.38;;;6.70;34.70;;;;;;5052821;28;20284;-66
2023/01/19 12:34:38;;;;;;;5.90;4.50;;;6.70;35.30;;;;;;5052786;28;20215;-67
2023/01/19 12:37:27;;;;;;;6.90;3.90;;;6.80;35.10;;;;;;5052970;28;20624;-66
2023/01/19 12:39:56;;;;;;;6.50;3.67;;;6.90;34.30;;;;;;5051900;28;20190;-67
2023/01/19 12:42:23;;;;;;;5.35;3.25;;;7.00;33.70;;;;;;5054844;28;20643;-67
2023/01/19 12:45:04;;;;;;;4.90;3.00;;;7.10;32.70;;;;;;5071791;28;20219;-66
2023/01/19 12:47:31;;;;;;;5.25;3.17;;;7.10;32.40;;;;;;5073477;28;20614;-66
2023/01/19 12:50:05;;;;;;;3.60;2.50;;;7.10;32.20;;;;;;5072738;28;20284;-67
2023/01/19 12:52:34;;;;;;;5.55;3.10;;;7.20;32.00;;;;;;5069721;28;20290;-66
2023/01/19 12:55:06;;;;;;;4.22;2.63;;;7.30;31.90;;;;;;5071470;28;20257;-66
2023/01/19 12:57:38;;;;;;;4.85;3.25;;;7.30;31.20;;;;;;5072888;28;20273;-66
2023/01/19 13:00:27;;;;;;;5.03;2.28;;;7.40;31.60;;;;;;5073219;28;20277;-67
2023/01/19 13:02:58;;;;;;;5.15;3.25;;;7.40;30.80;;;;;;5072450;28;20190;-67
2023/01/19 13:05:50;;;;;;;3.70;2.05;;;7.40;30.40;;;;;;5072907;28;20277;-66
2023/01/19 13:08:22;;;;;;;4.40;1.85;;;7.40;29.60;;;;;;5072958;28;20653;-66
2023/01/19 13:11:20;;;;;;;4.60;2.30;;;7.30;29.00;;;;;;5073147;28;20396;-66